createdAt,value
2017-10-25T00:01:46.657Z,72.20
2017-10-25T00:04:12.979Z,72.90
2017-10-25T00:06:39.270Z,72.20
2017-10-25T00:09:06.117Z,72.50
2017-10-25T00:11:32.976Z,72.30
2017-10-25T00:13:59.302Z,72.40
2017-10-25T00:16:25.953Z,72.30
2017-10-25T00:18:52.614Z,71.50
2017-10-25T00:21:18.918Z,71.90
2017-10-25T00:23:45.233Z,71.80
2017-10-25T00:26:12.918Z,71.80
2017-10-25T00:28:39.241Z,71.80
2017-10-25T00:31:07.562Z,71.40
2017-10-25T00:33:33.867Z,71.40
2017-10-25T00:36:00.740Z,71.70
2017-10-25T00:38:27.047Z,71.40
2017-10-25T00:40:54.119Z,71.70
2017-10-25T00:43:20.478Z,71.70
2017-10-25T00:45:46.820Z,71.40
2017-10-25T00:48:13.230Z,71.50
2017-10-25T00:50:39.586Z,71.20
2017-10-25T00:53:07.529Z,71.80
2017-10-25T00:55:34.115Z,71.70
2017-10-25T00:58:00.459Z,71.30
2017-10-25T01:00:27.150Z,71.80
2017-10-25T01:02:53.443Z,71.10
2017-10-25T01:05:19.779Z,70.40
2017-10-25T01:07:46.150Z,71.10
2017-10-25T01:10:13.579Z,70.50
2017-10-25T01:12:39.892Z,70.50
2017-10-25T01:15:06.699Z,71.00
2017-10-25T01:17:34.240Z,70.50
2017-10-25T01:20:00.935Z,70.50
2017-10-25T01:22:27.278Z,70.90
2017-10-25T01:31:36.491Z,70.20
2017-10-25T01:34:03.202Z,70.20
2017-10-25T01:36:30.292Z,70.30
2017-10-25T01:38:56.619Z,70.30
2017-10-25T01:41:23.034Z,70.10
2017-10-25T01:43:50.100Z,69.70
2017-10-25T01:46:16.610Z,69.70
2017-10-25T01:48:43.007Z,69.80
2017-10-25T01:51:09.898Z,69.40
2017-10-25T01:53:36.229Z,69.90
2017-10-25T01:56:02.570Z,70.30
2017-10-25T01:58:29.063Z,70.40
2017-10-25T02:00:56.171Z,70.60
2017-10-25T02:03:23.239Z,70.80
2017-10-25T02:05:50.311Z,70.30
2017-10-25T02:08:16.771Z,70.20
2017-10-25T02:10:43.606Z,70.00
2017-10-25T02:13:10.483Z,70.00
2017-10-25T02:15:36.799Z,70.20
2017-10-25T02:18:03.559Z,70.40
2017-10-25T02:20:29.899Z,70.50
2017-10-25T02:22:56.239Z,70.40
2017-10-25T02:25:23.591Z,70.50
2017-10-25T02:27:49.931Z,70.70
2017-10-25T02:30:16.251Z,70.60
2017-10-25T02:32:42.621Z,70.40
2017-10-25T02:35:09.552Z,70.30
2017-10-25T02:37:35.846Z,70.60
2017-10-25T02:40:02.171Z,70.80
2017-10-25T02:42:29.539Z,69.90
2017-10-25T02:44:55.853Z,69.90
2017-10-25T02:47:22.159Z,70.40
2017-10-25T02:49:48.499Z,70.60
2017-10-25T02:52:14.801Z,70.10
2017-10-25T02:54:41.283Z,70.20
2017-10-25T02:57:07.763Z,69.80
2017-10-25T02:59:34.068Z,69.10
2017-10-25T03:02:00.809Z,69.90
2017-10-25T03:04:27.111Z,69.50
2017-10-25T03:06:53.419Z,69.10
2017-10-25T03:09:20.112Z,69.00
2017-10-25T03:11:46.444Z,69.20
2017-10-25T03:14:12.772Z,69.30
2017-10-25T03:16:39.141Z,68.80
2017-10-25T03:19:05.900Z,69.50
2017-10-25T03:21:32.987Z,69.00
2017-10-25T03:23:59.623Z,69.00
2017-10-25T03:26:26.308Z,69.10
2017-10-25T03:28:52.610Z,68.70
2017-10-25T03:31:19.579Z,68.40
2017-10-25T03:33:45.883Z,68.70
2017-10-25T03:36:12.675Z,68.90
2017-10-25T03:38:39.019Z,68.90
2017-10-25T03:41:05.695Z,68.90
2017-10-25T03:43:32.783Z,69.10
2017-10-25T03:46:14.529Z,69.10
2017-10-25T03:48:41.589Z,69.00
2017-10-25T03:51:08.639Z,69.00
2017-10-25T03:53:35.714Z,68.90
2017-10-25T03:56:02.079Z,68.90
2017-10-25T03:58:28.888Z,68.90
2017-10-25T04:00:55.685Z,68.70
2017-10-25T04:03:21.991Z,68.80
2017-10-25T04:05:48.279Z,69.00
2017-10-25T04:08:15.044Z,69.00
2017-10-25T04:10:42.472Z,69.30
2017-10-25T04:13:08.775Z,69.30
2017-10-25T04:15:35.571Z,69.20
2017-10-25T04:18:03.003Z,69.40
2017-10-25T04:20:29.779Z,69.30
2017-10-25T04:22:56.723Z,69.20
2017-10-25T04:25:23.482Z,68.90
2017-10-25T04:27:50.552Z,68.80
2017-10-25T04:30:17.591Z,71.20
2017-10-25T04:32:45.139Z,69.40
2017-10-25T04:35:12.431Z,69.30
2017-10-25T04:37:39.407Z,69.10
2017-10-25T04:40:05.731Z,69.10
2017-10-25T04:42:32.035Z,70.00
2017-10-25T04:44:59.499Z,69.10
2017-10-25T04:47:26.551Z,69.20
2017-10-25T04:49:53.598Z,68.90
2017-10-25T04:52:20.685Z,69.00
2017-10-25T04:54:47.299Z,69.00
2017-10-25T04:57:14.351Z,69.80
2017-10-25T04:59:41.879Z,70.20
2017-10-25T05:02:08.194Z,70.20
2017-10-25T05:04:34.999Z,69.40
2017-10-25T05:07:02.063Z,69.40
2017-10-25T05:09:29.653Z,69.60
2017-10-25T05:11:55.962Z,69.60
2017-10-25T05:14:23.007Z,69.30
2017-10-25T05:16:50.108Z,69.40
2017-10-25T05:19:16.941Z,69.40
2017-10-25T05:21:43.259Z,70.30
2017-10-25T05:24:09.595Z,69.40
2017-10-25T05:26:36.043Z,69.80
2017-10-25T05:29:03.263Z,69.90
2017-10-25T05:31:30.455Z,69.50
2017-10-25T05:33:57.271Z,69.40
2017-10-25T05:36:24.171Z,69.20
2017-10-25T05:38:50.491Z,69.40
2017-10-25T05:41:17.270Z,69.20
2017-10-25T05:43:43.906Z,69.00
2017-10-25T05:46:10.255Z,69.20
2017-10-25T05:48:36.578Z,69.10
2017-10-25T05:51:03.155Z,69.40
2017-10-25T05:53:29.470Z,69.30
2017-10-25T05:55:55.879Z,69.20
2017-10-25T05:58:22.538Z,69.50
2017-10-25T06:00:48.851Z,69.30
2017-10-25T06:03:15.503Z,69.50
2017-10-25T06:05:41.803Z,69.70
2017-10-25T06:08:08.842Z,70.00
2017-10-25T06:10:35.902Z,70.00
2017-10-25T06:13:03.476Z,70.50
2017-10-25T06:15:31.244Z,70.60
2017-10-25T06:17:58.655Z,70.50
2017-10-25T06:20:24.978Z,70.40
2017-10-25T06:22:51.311Z,70.40
2017-10-25T06:25:18.275Z,70.60
2017-10-25T06:27:44.575Z,70.30
2017-10-25T06:30:10.915Z,70.50
2017-10-25T06:32:37.259Z,70.10
2017-10-25T06:35:04.114Z,70.20
2017-10-25T06:37:30.439Z,70.00
2017-10-25T06:39:57.276Z,70.00
2017-10-25T06:42:24.351Z,69.40
2017-10-25T06:44:50.738Z,69.40
2017-10-25T06:47:17.225Z,69.30
2017-10-25T06:49:43.583Z,69.20
2017-10-25T06:52:10.011Z,69.10
2017-10-25T06:54:36.376Z,68.70
2017-10-25T06:57:02.699Z,69.20
2017-10-25T06:59:29.523Z,68.80
2017-10-25T07:01:55.819Z,67.80
2017-10-25T07:04:22.879Z,68.30
2017-10-25T07:06:49.964Z,68.00
2017-10-25T07:09:16.272Z,67.90
2017-10-25T07:11:43.739Z,67.20
2017-10-25T07:14:11.246Z,67.10
2017-10-25T07:16:37.539Z,67.00
2017-10-25T07:19:04.309Z,67.40
2017-10-25T07:21:31.042Z,67.10
2017-10-25T07:23:57.355Z,66.80
2017-10-25T07:26:24.890Z,66.50
2017-10-25T07:28:51.200Z,66.50
2017-10-25T07:31:17.501Z,65.80
2017-10-25T07:33:44.674Z,66.10
2017-10-25T07:36:11.547Z,66.10
2017-10-25T07:38:38.329Z,66.10
2017-10-25T07:41:04.683Z,65.80
2017-10-25T07:43:31.727Z,65.90
2017-10-25T07:45:58.095Z,65.80
2017-10-25T07:48:24.396Z,65.20
2017-10-25T07:50:50.795Z,65.40
2017-10-25T07:53:17.119Z,65.80
2017-10-25T07:55:43.422Z,65.80
2017-10-25T07:58:11.062Z,65.50
2017-10-25T08:00:37.358Z,65.40
2017-10-25T08:03:03.668Z,65.40
2017-10-25T08:05:30.004Z,65.10
2017-10-25T08:07:56.311Z,64.80
2017-10-25T08:10:23.051Z,65.00
2017-10-25T08:12:49.851Z,64.20
2017-10-25T08:15:16.156Z,64.30
2017-10-25T08:17:43.609Z,64.70
2017-10-25T08:20:11.335Z,63.50
2017-10-25T08:22:37.631Z,63.40
2017-10-25T08:25:03.958Z,63.00
2017-10-25T08:27:31.143Z,62.30
2017-10-25T08:29:57.460Z,62.20
2017-10-25T08:32:23.850Z,62.40
2017-10-25T08:34:50.654Z,62.90
2017-10-25T08:37:16.962Z,62.30
2017-10-25T08:39:44.038Z,62.60
2017-10-25T08:42:10.550Z,62.60
2017-10-25T08:44:37.633Z,61.30
2017-10-25T08:47:04.071Z,61.20
2017-10-25T08:49:30.508Z,61.70
2017-10-25T08:51:56.843Z,60.80
2017-10-25T08:54:24.510Z,61.10
2017-10-25T08:56:51.413Z,61.50
2017-10-25T08:59:17.747Z,61.20
2017-10-25T09:01:44.091Z,60.30
2017-10-25T09:04:10.470Z,59.80
2017-10-25T09:06:36.806Z,59.20
2017-10-25T09:09:04.081Z,60.30
2017-10-25T09:11:30.831Z,60.10
2017-10-25T09:13:57.593Z,59.00
2017-10-25T09:16:24.145Z,59.40
2017-10-25T09:18:51.177Z,58.10
2017-10-25T09:21:17.486Z,58.90
2017-10-25T09:23:43.790Z,59.10
2017-10-25T09:26:10.746Z,58.40
2017-10-25T09:28:37.054Z,57.50
2017-10-25T09:31:03.865Z,58.00
2017-10-25T09:33:30.507Z,57.50
2017-10-25T09:35:57.247Z,57.20
2017-10-25T09:38:23.548Z,56.50
2017-10-25T09:40:49.844Z,57.40
2017-10-25T09:43:16.178Z,55.30
2017-10-25T09:45:42.511Z,55.50
2017-10-25T09:48:08.925Z,55.00
2017-10-25T09:50:35.740Z,53.80
2017-10-25T09:53:02.644Z,55.90
2017-10-25T09:55:28.958Z,56.50
2017-10-25T09:57:55.267Z,55.90
2017-10-25T10:00:22.038Z,55.30
2017-10-25T10:02:48.345Z,56.20
2017-10-25T10:05:14.668Z,56.10
2017-10-25T10:07:41.321Z,55.20
2017-10-25T10:10:07.632Z,56.00
2017-10-25T10:12:34.284Z,57.10
2017-10-25T10:15:00.595Z,56.40
2017-10-25T10:17:27.551Z,56.70
2017-10-25T10:19:53.856Z,56.00
2017-10-25T10:22:20.247Z,55.80
2017-10-25T10:24:46.586Z,56.00
2017-10-25T10:27:12.887Z,55.90
2017-10-25T10:29:39.807Z,55.70
2017-10-25T10:32:06.137Z,55.00
2017-10-25T10:34:33.550Z,55.70
2017-10-25T10:37:00.125Z,55.60
2017-10-25T10:39:27.225Z,55.70
2017-10-25T10:41:53.599Z,55.60
2017-10-25T10:44:19.907Z,55.50
2017-10-25T10:46:46.599Z,56.50
2017-10-25T10:49:13.439Z,55.90
2017-10-25T10:51:40.110Z,55.90
2017-10-25T10:54:07.795Z,54.10
2017-10-25T10:56:34.103Z,54.00
2017-10-25T10:59:01.172Z,54.80
2017-10-25T11:01:28.043Z,54.80
2017-10-25T11:03:54.875Z,55.10
2017-10-25T11:06:21.216Z,54.40
2017-10-25T11:08:47.566Z,54.00
2017-10-25T11:11:14.304Z,54.60
2017-10-25T11:13:40.642Z,54.00
2017-10-25T11:16:06.995Z,53.40
2017-10-25T11:18:34.015Z,53.70
2017-10-25T11:21:00.368Z,53.40
2017-10-25T11:23:26.682Z,52.80
2017-10-25T11:25:53.783Z,53.60
2017-10-25T11:28:20.599Z,53.40
2017-10-25T11:30:46.940Z,53.10
2017-10-25T11:33:13.297Z,52.50
2017-10-25T11:35:40.252Z,52.20
2017-10-25T11:38:07.187Z,53.00
2017-10-25T11:40:33.514Z,52.30
2017-10-25T11:43:00.268Z,53.20
2017-10-25T11:45:27.038Z,52.20
2017-10-25T11:47:53.865Z,53.60
2017-10-25T11:50:20.188Z,54.00
2017-10-25T11:52:46.894Z,53.70
2017-10-25T11:55:13.194Z,53.40
2017-10-25T11:57:39.813Z,53.10
2017-10-25T12:00:06.143Z,53.20
2017-10-25T12:02:32.924Z,53.10
2017-10-25T12:04:59.222Z,53.10
2017-10-25T12:07:25.552Z,52.80
2017-10-25T12:09:51.888Z,52.50
2017-10-25T12:12:18.671Z,52.80
2017-10-25T12:14:44.990Z,53.70
2017-10-25T12:17:11.326Z,52.70
2017-10-25T12:19:38.254Z,52.90
2017-10-25T12:22:04.600Z,52.90
2017-10-25T12:24:30.959Z,53.50
2017-10-25T12:26:57.647Z,53.50
2017-10-25T12:29:23.974Z,52.80
2017-10-25T12:31:50.301Z,53.40
2017-10-25T12:34:17.194Z,53.20
2017-10-25T12:36:43.527Z,53.70
2017-10-25T12:39:10.602Z,53.70
2017-10-25T12:41:37.460Z,53.60
2017-10-25T12:44:03.794Z,54.10
2017-10-25T12:46:30.591Z,53.90
2017-10-25T12:48:56.938Z,54.40
2017-10-25T12:51:24.008Z,53.70
2017-10-25T12:53:50.371Z,53.50
2017-10-25T12:56:17.418Z,53.10
2017-10-25T12:58:44.435Z,52.80
2017-10-25T13:01:11.505Z,53.40
2017-10-25T13:03:37.838Z,53.40
2017-10-25T13:06:04.199Z,53.90
2017-10-25T13:08:30.534Z,54.00
2017-10-25T13:11:21.468Z,53.90
2017-10-25T13:14:12.654Z,54.10
2017-10-25T13:16:50.580Z,53.60
2017-10-25T13:19:17.492Z,53.80
2017-10-25T13:21:43.818Z,53.90
2017-10-25T13:24:10.545Z,53.80
2017-10-25T13:26:37.264Z,53.90
2017-10-25T13:29:22.662Z,53.80
2017-10-25T13:32:07.196Z,53.80
2017-10-25T13:34:54.838Z,54.20
2017-10-25T13:37:41.185Z,54.20
2017-10-25T13:40:27.363Z,54.10
2017-10-25T13:43:06.949Z,54.20
2017-10-25T13:45:33.283Z,53.50
2017-10-25T13:47:59.602Z,54.20
2017-10-25T13:50:26.753Z,54.50
2017-10-25T13:52:54.230Z,54.50
2017-10-25T13:55:21.307Z,54.20
2017-10-25T13:57:48.140Z,54.20
2017-10-25T14:00:14.483Z,54.40
2017-10-25T14:02:40.862Z,54.80
2017-10-25T14:05:07.408Z,54.60
2017-10-25T14:07:33.759Z,54.70
2017-10-25T14:10:00.211Z,55.00
2017-10-25T14:12:28.394Z,55.40
2017-10-25T14:14:56.012Z,55.20
2017-10-25T14:17:23.767Z,55.20
2017-10-25T14:19:50.135Z,55.00
2017-10-25T14:22:16.906Z,55.40
2017-10-25T14:24:43.982Z,56.20
2017-10-25T14:27:32.294Z,56.20
2017-10-25T14:29:58.621Z,56.80
2017-10-25T14:32:25.039Z,57.20
2017-10-25T14:34:51.978Z,57.60
2017-10-25T14:37:18.305Z,57.50
2017-10-25T14:39:44.633Z,57.50
2017-10-25T14:42:11.655Z,57.40
2017-10-25T14:44:38.743Z,57.40
2017-10-25T14:47:05.087Z,57.40
2017-10-25T14:49:31.926Z,57.60
2017-10-25T14:51:58.246Z,57.80
2017-10-25T14:54:25.055Z,58.00
2017-10-25T14:56:51.947Z,58.40
2017-10-25T14:59:18.322Z,58.50
2017-10-25T15:01:44.681Z,58.70
2017-10-25T15:04:11.087Z,58.70
2017-10-25T15:06:38.070Z,59.20
2017-10-25T15:09:04.970Z,59.80
2017-10-25T15:11:31.590Z,60.00
2017-10-25T15:13:58.514Z,60.70
2017-10-25T15:16:24.867Z,60.50
2017-10-25T15:18:52.359Z,60.90
2017-10-25T15:21:19.091Z,60.90
2017-10-25T15:23:45.892Z,61.10
2017-10-25T15:26:12.679Z,61.60
2017-10-25T15:28:40.744Z,61.60
2017-10-25T15:31:08.572Z,61.30
2017-10-25T15:33:35.434Z,61.40
2017-10-25T15:36:02.291Z,61.60
2017-10-25T15:38:29.093Z,61.70
2017-10-25T15:40:55.774Z,61.70
2017-10-25T15:43:22.519Z,62.30
2017-10-25T15:45:50.127Z,63.70
2017-10-25T15:48:16.962Z,63.80
2017-10-25T15:50:44.020Z,64.80
2017-10-25T15:53:11.453Z,65.80
2017-10-25T15:55:37.788Z,65.80
2017-10-25T15:58:04.483Z,66.30
2017-10-25T16:00:31.225Z,66.00
2017-10-25T16:02:57.581Z,68.20
2017-10-25T16:05:23.875Z,68.10
2017-10-25T16:07:51.073Z,70.10
2017-10-25T16:10:17.373Z,70.30
2017-10-25T16:12:44.282Z,70.20
2017-10-25T16:15:10.603Z,70.90
2017-10-25T16:17:37.367Z,70.00
2017-10-25T16:20:04.083Z,70.20
2017-10-25T16:22:30.448Z,72.40
2017-10-25T16:24:56.751Z,70.60
2017-10-25T16:27:23.112Z,72.10
2017-10-25T16:29:49.412Z,72.00
2017-10-25T16:32:15.810Z,72.00
2017-10-25T16:34:42.739Z,71.90
2017-10-25T16:37:09.443Z,72.80
2017-10-25T16:39:36.431Z,71.80
2017-10-25T16:42:03.091Z,72.20
2017-10-25T16:44:29.846Z,72.10
2017-10-25T16:46:56.587Z,73.10
2017-10-25T16:49:23.391Z,73.50
2017-10-25T16:51:49.692Z,73.40
2017-10-25T16:54:16.820Z,73.10
2017-10-25T16:56:58.827Z,73.30
2017-10-25T16:59:25.147Z,73.00
2017-10-25T17:01:51.447Z,73.50
2017-10-25T17:04:17.811Z,72.60
2017-10-25T17:06:44.195Z,72.70
2017-10-25T17:09:10.608Z,73.30
2017-10-25T17:11:36.973Z,73.20
2017-10-25T17:14:03.791Z,73.30
2017-10-25T17:16:30.123Z,73.20
2017-10-25T17:18:56.770Z,73.50
2017-10-25T17:21:24.299Z,74.00
2017-10-25T17:23:50.619Z,74.20
2017-10-25T17:26:17.015Z,74.00
2017-10-25T17:28:44.116Z,73.50
2017-10-25T17:31:10.467Z,73.60
2017-10-25T17:33:37.503Z,74.90
2017-10-25T17:36:04.491Z,74.60
2017-10-25T17:38:31.112Z,75.60
2017-10-25T17:40:57.900Z,74.90
2017-10-25T17:43:25.327Z,74.90
2017-10-25T17:45:51.991Z,75.20
2017-10-25T17:48:19.007Z,75.30
2017-10-25T17:50:45.745Z,75.30
2017-10-25T17:53:12.369Z,75.60
2017-10-25T17:55:39.011Z,76.00
2017-10-25T17:58:05.871Z,78.10
2017-10-25T18:00:33.106Z,78.30
2017-10-25T18:03:00.084Z,77.70
2017-10-25T18:05:26.763Z,80.60
2017-10-25T18:07:53.471Z,78.00
2017-10-25T18:10:20.340Z,77.40
2017-10-25T18:12:47.151Z,77.90
2017-10-25T18:15:13.917Z,78.30
2017-10-25T18:17:40.656Z,77.70
2017-10-25T18:20:07.410Z,78.60
2017-10-25T18:22:34.231Z,78.50
2017-10-25T18:25:00.561Z,77.70
2017-10-25T18:27:27.647Z,78.50
2017-10-25T18:29:54.067Z,78.60
2017-10-25T18:32:20.759Z,78.10
2017-10-25T18:34:47.699Z,78.00
2017-10-25T18:37:14.054Z,79.20
2017-10-25T18:39:40.914Z,77.60
2017-10-25T18:42:07.696Z,79.20
2017-10-25T18:44:34.331Z,78.50
2017-10-25T18:47:00.643Z,79.40
2017-10-25T18:49:27.014Z,80.10
2017-10-25T18:51:53.362Z,79.00
2017-10-25T18:54:20.232Z,78.70
2017-10-25T18:56:46.535Z,79.80
2017-10-25T18:59:12.837Z,79.00
2017-10-25T19:01:39.218Z,80.20
2017-10-25T19:04:05.557Z,79.70
2017-10-25T19:06:31.949Z,79.10
2017-10-25T19:08:58.749Z,79.50
2017-10-25T19:11:25.079Z,79.30
2017-10-25T19:13:51.782Z,79.60
2017-10-25T19:16:18.815Z,80.20
2017-10-25T19:18:45.571Z,80.30
2017-10-25T19:21:13.302Z,80.00
2017-10-25T19:23:39.997Z,80.00
2017-10-25T19:26:07.061Z,79.80
2017-10-25T19:28:34.503Z,80.10
2017-10-25T19:31:00.822Z,80.30
2017-10-25T19:33:27.465Z,79.90
2017-10-25T19:35:54.964Z,79.60
2017-10-25T19:38:22.639Z,80.20
2017-10-25T19:40:48.962Z,80.40
2017-10-25T19:43:16.527Z,80.50
2017-10-25T19:45:43.692Z,80.20
2017-10-25T19:48:10.044Z,80.20
2017-10-25T19:50:36.511Z,80.30
2017-10-25T19:53:02.837Z,80.40
2017-10-25T19:55:29.310Z,80.80
2017-10-25T19:57:56.614Z,80.70
2017-10-25T20:00:22.943Z,80.70
2017-10-25T20:02:49.360Z,80.30
2017-10-25T20:05:16.489Z,80.70
2017-10-25T20:07:43.352Z,80.90
2017-10-25T20:10:09.664Z,81.00
2017-10-25T20:12:36.010Z,81.20
2017-10-25T20:15:02.752Z,80.70
2017-10-25T20:17:29.594Z,80.70
2017-10-25T20:19:56.365Z,80.80
2017-10-25T20:22:23.075Z,80.90
2017-10-25T20:24:49.389Z,80.30
2017-10-25T20:27:16.244Z,80.20
2017-10-25T20:29:42.595Z,80.60
2017-10-25T20:32:08.919Z,80.40
2017-10-25T20:34:35.611Z,80.30
2017-10-25T20:37:02.239Z,80.50
2017-10-25T20:39:29.139Z,80.60
2017-10-25T20:41:55.793Z,80.70
2017-10-25T20:44:22.159Z,80.70
2017-10-25T20:46:48.466Z,80.60
2017-10-25T20:49:14.817Z,80.70
2017-10-25T20:51:41.165Z,80.70
2017-10-25T20:54:08.057Z,81.40
2017-10-25T20:56:35.130Z,82.00
2017-10-25T20:59:01.435Z,82.10
2017-10-25T21:01:28.529Z,81.40
2017-10-25T21:03:55.283Z,81.50
2017-10-25T21:06:21.991Z,81.50
2017-10-25T21:08:49.414Z,81.00
2017-10-25T21:11:16.919Z,81.10
2017-10-25T21:13:44.436Z,81.60
2017-10-25T21:16:10.773Z,81.70
2017-10-25T21:18:37.514Z,81.20
2017-10-25T21:21:04.359Z,81.20
2017-10-25T21:23:31.281Z,81.00
2017-10-25T21:25:57.574Z,80.80
2017-10-25T21:28:23.883Z,81.30
2017-10-25T21:30:50.234Z,81.80
2017-10-25T21:33:16.578Z,81.90
2017-10-25T21:35:43.379Z,81.60
2017-10-25T21:38:10.344Z,81.60
2017-10-25T21:40:36.673Z,82.20
2017-10-25T21:43:03.039Z,82.40
2017-10-25T21:45:29.528Z,81.80
2017-10-25T21:47:55.831Z,81.90
2017-10-25T21:50:22.228Z,81.30
2017-10-25T21:52:48.679Z,81.90
2017-10-25T21:55:15.024Z,82.50
2017-10-25T21:57:41.339Z,83.10
2017-10-25T22:00:08.084Z,82.90
2017-10-25T22:02:34.736Z,82.30
2017-10-25T22:05:01.060Z,82.90
2017-10-25T22:07:27.707Z,82.80
2017-10-25T22:09:53.998Z,82.80
2017-10-25T22:12:21.034Z,82.60
2017-10-25T22:14:47.799Z,82.60
2017-10-25T22:17:15.591Z,83.00
2017-10-25T22:19:41.891Z,83.10
2017-10-25T22:22:09.607Z,84.10
2017-10-25T22:24:35.921Z,83.70
2017-10-25T22:27:02.244Z,84.00
2017-10-25T22:29:29.316Z,84.60
2017-10-25T22:31:55.614Z,84.80
2017-10-25T22:34:22.426Z,83.20
2017-10-25T22:36:49.108Z,84.10
2017-10-25T22:39:15.867Z,83.80
2017-10-25T22:41:43.256Z,83.70
2017-10-25T22:44:09.558Z,84.60
2017-10-25T22:46:36.599Z,83.90
2017-10-25T22:49:02.940Z,84.00
2017-10-25T22:51:29.240Z,83.90
2017-10-25T22:53:56.148Z,84.30
2017-10-25T22:56:23.183Z,83.80
2017-10-25T22:58:50.220Z,85.40
2017-10-25T23:01:17.084Z,85.00
2017-10-25T23:03:44.136Z,84.20
2017-10-25T23:06:11.203Z,84.50
2017-10-25T23:08:38.375Z,84.30
2017-10-25T23:11:04.673Z,84.40
2017-10-25T23:13:31.555Z,84.60
2017-10-25T23:15:57.859Z,85.00
2017-10-25T23:18:24.756Z,85.20
2017-10-25T23:20:51.455Z,84.70
2017-10-25T23:23:18.523Z,85.00
2017-10-25T23:25:45.151Z,85.10
2017-10-25T23:28:11.471Z,84.80
2017-10-25T23:30:37.769Z,85.20
2017-10-25T23:33:04.535Z,84.90
2017-10-25T23:35:31.191Z,85.10
2017-10-25T23:37:57.852Z,84.80
2017-10-25T23:40:24.167Z,84.60
2017-10-25T23:42:50.455Z,84.70
2017-10-25T23:45:16.788Z,85.10
2017-10-25T23:47:43.075Z,84.90
2017-10-25T23:50:09.486Z,85.20
2017-10-25T23:52:36.505Z,84.80
2017-10-25T23:55:04.246Z,86.20
2017-10-25T23:57:30.574Z,86.20
2017-10-25T23:59:56.877Z,85.60
